createdAt,value
2023-01-21T00:04:20.926Z,1.19
2023-01-21T00:09:22.210Z,0.23
2023-01-21T00:14:23.446Z,-0.11
2023-01-21T00:19:24.725Z,0.05
2023-01-21T00:24:26.023Z,-0.22
2023-01-21T00:29:27.261Z,-0.21
2023-01-21T00:34:28.482Z,-0.44
2023-01-21T00:39:29.955Z,-0.61
2023-01-21T00:44:31.236Z,-0.87
2023-01-21T00:49:32.512Z,-0.59
2023-01-21T00:54:33.879Z,-0.28
2023-01-21T00:59:35.118Z,-0.30
2023-01-21T01:04:36.321Z,-0.54
2023-01-21T01:09:37.544Z,-0.21
2023-01-21T01:14:38.803Z,0.27
2023-01-21T01:19:40.071Z,0.12
2023-01-21T01:24:41.327Z,-0.23
2023-01-21T01:29:42.589Z,-0.01
2023-01-21T01:34:44.988Z,0.26
2023-01-21T01:39:46.259Z,-0.06
2023-01-21T01:44:47.555Z,0.01
2023-01-21T01:49:48.852Z,0.13
2023-01-21T01:54:50.062Z,0.28
2023-01-21T01:59:51.331Z,0.61
2023-01-21T02:04:52.550Z,0.73
2023-01-21T02:09:53.788Z,0.44
2023-01-21T02:14:55.018Z,0.34
2023-01-21T02:19:56.310Z,0.30
2023-01-21T02:24:57.544Z,0.05
2023-01-21T02:29:58.789Z,0.09
2023-01-21T02:35:00.083Z,0.35
2023-01-21T02:40:01.361Z,0.60
2023-01-21T02:45:02.664Z,0.23
2023-01-21T02:50:03.939Z,-0.55
2023-01-21T02:55:05.205Z,-0.65
2023-01-21T03:00:06.470Z,-0.91
2023-01-21T03:05:08.957Z,-0.98
2023-01-21T03:10:10.246Z,-0.97
2023-01-21T03:15:30.368Z,-1.14
2023-01-21T03:20:31.654Z,-0.89
2023-01-21T03:25:32.989Z,-0.84
2023-01-21T03:30:34.230Z,-0.48
2023-01-21T03:35:35.527Z,-0.39
2023-01-21T03:40:36.737Z,-0.21
2023-01-21T03:45:38.056Z,-0.56
2023-01-21T03:50:39.352Z,-0.71
2023-01-21T03:55:40.614Z,-1.04
2023-01-21T04:00:41.819Z,-1.03
2023-01-21T04:05:43.106Z,-1.21
2023-01-21T04:10:44.390Z,-1.07
2023-01-21T04:15:45.647Z,-0.95
2023-01-21T04:20:46.887Z,-1.31
2023-01-21T04:25:48.149Z,-1.23
2023-01-21T04:30:49.447Z,-1.14
2023-01-21T04:35:50.791Z,-1.19
2023-01-21T04:40:52.047Z,-1.00
2023-01-21T04:45:53.396Z,-0.89
2023-01-21T04:50:54.730Z,-0.96
2023-01-21T04:55:56.225Z,-0.83
2023-01-21T05:00:57.539Z,-0.53
2023-01-21T05:05:58.968Z,-1.07
2023-01-21T05:11:00.224Z,-0.98
2023-01-21T05:16:01.527Z,-1.12
2023-01-21T05:21:02.941Z,-1.14
2023-01-21T05:26:04.339Z,-1.37
2023-01-21T05:31:05.741Z,-1.12
2023-01-21T05:36:07.044Z,-1.13
2023-01-21T05:41:08.271Z,-0.93
2023-01-21T05:46:09.621Z,-1.12
2023-01-21T05:51:10.952Z,-1.20
2023-01-21T05:56:12.252Z,-1.35
2023-01-21T06:01:13.559Z,-1.26
2023-01-21T06:06:14.803Z,-1.20
2023-01-21T06:11:16.139Z,-1.24
2023-01-21T06:16:17.360Z,-1.38
2023-01-21T06:21:18.636Z,-1.28
2023-01-21T06:26:19.992Z,-1.22
2023-01-21T06:31:21.289Z,-1.25
2023-01-21T06:36:22.633Z,-1.20
2023-01-21T06:41:23.930Z,-1.25
2023-01-21T06:46:25.264Z,-1.25
2023-01-21T06:51:26.529Z,-1.25
2023-01-21T06:56:27.740Z,-1.23
2023-01-21T07:01:31.662Z,-1.28
2023-01-21T07:06:33.790Z,-1.15
2023-01-21T07:11:35.045Z,-1.20
2023-01-21T07:16:36.390Z,-1.19
2023-01-21T07:21:37.589Z,-1.24
2023-01-21T07:26:38.937Z,-1.16
2023-01-21T07:31:40.257Z,-0.66
2023-01-21T07:36:41.571Z,-0.75
2023-01-21T07:41:42.873Z,-0.93
2023-01-21T07:46:44.196Z,-0.62
2023-01-21T07:51:45.526Z,-0.62
2023-01-21T07:56:46.815Z,-0.73
2023-01-21T08:01:48.141Z,-0.76
2023-01-21T08:06:52.859Z,-0.67
2023-01-21T08:11:54.121Z,-0.52
2023-01-21T08:16:55.666Z,-0.52
2023-01-21T08:21:56.963Z,-0.49
2023-01-21T08:26:58.815Z,-0.25
2023-01-21T08:32:00.107Z,-0.05
2023-01-21T08:37:01.567Z,-0.13
2023-01-21T08:42:02.871Z,-0.07
2023-01-21T08:47:04.280Z,0.19
2023-01-21T08:52:05.543Z,-0.07
2023-01-21T08:57:06.792Z,0.20
2023-01-21T09:02:11.263Z,0.39
2023-01-21T09:07:12.548Z,0.33
2023-01-21T09:12:13.791Z,0.42
2023-01-21T09:17:15.187Z,0.50
2023-01-21T09:22:16.559Z,0.57
2023-01-21T09:27:17.906Z,0.40
2023-01-21T09:32:19.142Z,1.45
2023-01-21T09:37:20.399Z,1.45
2023-01-21T09:42:21.622Z,1.18
2023-01-21T09:47:22.830Z,0.96
2023-01-21T09:52:24.051Z,0.98
2023-01-21T09:57:25.402Z,1.11
2023-01-21T10:02:26.700Z,0.95
2023-01-21T10:07:27.916Z,0.69
2023-01-21T10:12:29.147Z,0.80
2023-01-21T10:17:30.386Z,0.92
2023-01-21T10:22:31.649Z,1.28
2023-01-21T10:27:32.971Z,1.22
2023-01-21T10:32:34.226Z,1.31
2023-01-21T10:37:35.473Z,1.35
2023-01-21T10:42:36.721Z,1.54
2023-01-21T10:47:38.010Z,1.46
2023-01-21T10:52:39.255Z,1.44
2023-01-21T10:57:40.510Z,1.04
2023-01-21T11:02:41.802Z,1.31
2023-01-21T11:07:43.288Z,1.25
2023-01-21T11:12:44.582Z,1.32
2023-01-21T11:17:46.027Z,1.57
2023-01-21T11:22:47.342Z,1.72
2023-01-21T11:27:48.631Z,1.69
2023-01-21T11:32:49.845Z,1.59
2023-01-21T11:37:51.143Z,1.78
2023-01-21T11:42:52.409Z,1.95
2023-01-21T11:47:53.933Z,2.46
2023-01-21T11:52:55.960Z,2.22
2023-01-21T11:57:57.221Z,1.91
2023-01-21T12:02:58.604Z,1.62
2023-01-21T12:07:59.880Z,1.40
2023-01-21T12:13:01.140Z,1.45
2023-01-21T12:18:02.533Z,1.62
2023-01-21T12:23:03.820Z,1.86
2023-01-21T12:28:05.123Z,1.99
2023-01-21T12:33:06.399Z,1.85
2023-01-21T12:38:07.635Z,1.82
2023-01-21T12:43:09.065Z,1.86
2023-01-21T12:48:10.353Z,1.87
2023-01-21T12:53:11.657Z,1.47
2023-01-21T12:58:12.881Z,1.49
2023-01-21T13:03:14.188Z,1.69
2023-01-21T13:08:15.491Z,1.74
2023-01-21T13:13:16.720Z,1.66
2023-01-21T13:18:17.926Z,1.33
2023-01-21T13:23:19.160Z,1.57
2023-01-21T13:28:20.462Z,1.53
2023-01-21T13:33:21.772Z,1.38
2023-01-21T13:38:22.994Z,1.42
2023-01-21T13:43:24.246Z,1.42
2023-01-21T13:48:25.465Z,1.42
2023-01-21T13:53:26.986Z,1.56
2023-01-21T13:58:28.214Z,1.79
2023-01-21T14:03:29.473Z,1.61
2023-01-21T14:08:30.834Z,1.68
2023-01-21T14:13:32.164Z,1.64
2023-01-21T14:18:33.455Z,1.46
2023-01-21T14:23:34.711Z,1.73
2023-01-21T14:28:36.010Z,1.42
2023-01-21T14:33:37.293Z,1.38
2023-01-21T14:38:39.979Z,1.24
2023-01-21T14:43:41.368Z,1.59
2023-01-21T14:48:42.628Z,1.47
2023-01-21T14:53:43.830Z,1.36
2023-01-21T14:58:45.050Z,1.31
2023-01-21T15:03:46.277Z,1.44
2023-01-21T15:08:47.496Z,1.29
2023-01-21T15:13:48.698Z,1.28
2023-01-21T15:18:51.023Z,1.20
2023-01-21T15:23:52.263Z,0.96
2023-01-21T15:28:56.178Z,0.93
2023-01-21T15:33:57.506Z,1.19
2023-01-21T15:39:00.769Z,1.12
2023-01-21T15:44:03.086Z,1.02
2023-01-21T15:49:05.601Z,0.73
2023-01-21T15:54:06.896Z,0.82
2023-01-21T15:59:08.130Z,0.96
2023-01-21T16:04:11.358Z,0.92
2023-01-21T16:09:12.570Z,0.81
2023-01-21T16:14:13.968Z,0.31
2023-01-21T16:19:15.445Z,0.59
2023-01-21T16:24:17.141Z,0.36
2023-01-21T16:29:18.501Z,0.38
2023-01-21T16:34:19.783Z,0.42
2023-01-21T16:39:21.052Z,1.37
2023-01-21T16:44:22.290Z,1.59
2023-01-21T16:49:23.563Z,0.95
2023-01-21T16:54:24.786Z,0.33
2023-01-21T16:59:26.053Z,0.46
2023-01-21T17:04:27.283Z,0.16
2023-01-21T17:09:28.558Z,0.24
2023-01-21T17:14:29.827Z,0.27
2023-01-21T17:19:31.327Z,0.21
2023-01-21T17:24:32.619Z,0.29
2023-01-21T17:29:33.843Z,0.37
2023-01-21T17:34:35.207Z,0.45
2023-01-21T17:39:36.422Z,0.44
2023-01-21T17:44:37.749Z,0.10
2023-01-21T17:49:39.187Z,-0.03
2023-01-21T17:54:40.439Z,0.01
2023-01-21T17:59:41.829Z,0.23
2023-01-21T18:04:43.196Z,0.37
2023-01-21T18:09:44.469Z,0.26
2023-01-21T18:14:45.787Z,0.29
2023-01-21T18:19:47.101Z,0.32
2023-01-21T18:24:48.339Z,0.46
2023-01-21T18:29:49.589Z,0.33
2023-01-21T18:34:50.836Z,0.08
2023-01-21T18:39:52.182Z,0.02
2023-01-21T18:44:53.432Z,0.31
2023-01-21T18:49:54.808Z,0.49
2023-01-21T18:54:56.059Z,0.37
2023-01-21T18:59:57.332Z,0.50
2023-01-21T19:04:58.612Z,0.51
2023-01-21T19:09:59.833Z,0.50
2023-01-21T19:15:01.970Z,0.45
2023-01-21T19:20:03.436Z,0.28
2023-01-21T19:25:04.675Z,0.74
2023-01-21T19:30:05.940Z,0.70
2023-01-21T19:35:07.162Z,0.29
2023-01-21T19:40:08.366Z,0.82
2023-01-21T19:45:09.652Z,0.86
2023-01-21T19:50:10.934Z,1.08
2023-01-21T19:55:12.164Z,1.00
2023-01-21T20:00:13.426Z,0.77
2023-01-21T20:05:14.979Z,0.42
2023-01-21T20:10:16.317Z,0.62
2023-01-21T20:15:17.827Z,0.83
2023-01-21T20:20:19.229Z,0.37
2023-01-21T20:25:20.797Z,0.32
2023-01-21T20:30:22.257Z,0.05
2023-01-21T20:35:24.558Z,0.08
2023-01-21T20:40:25.848Z,0.15
2023-01-21T20:45:27.144Z,0.09
2023-01-21T20:50:35.847Z,0.52
2023-01-21T20:55:38.612Z,0.50
2023-01-21T21:00:39.910Z,0.27
2023-01-21T21:05:41.280Z,0.46
2023-01-21T21:10:42.532Z,0.97
2023-01-21T21:15:46.403Z,0.54
2023-01-21T21:20:47.942Z,0.68
2023-01-21T21:25:49.373Z,1.04
2023-01-21T21:30:50.766Z,1.17
2023-01-21T21:35:52.119Z,1.19
2023-01-21T21:40:53.469Z,1.55
2023-01-21T21:46:13.706Z,1.55
2023-01-21T21:51:14.972Z,1.59
2023-01-21T21:56:16.253Z,1.57
2023-01-21T22:01:17.555Z,1.42
2023-01-21T22:06:18.894Z,1.24
2023-01-21T22:11:20.154Z,0.85
2023-01-21T22:16:21.499Z,1.06
2023-01-21T22:21:23.109Z,1.18
2023-01-21T22:26:24.400Z,1.04
2023-01-21T22:31:25.770Z,0.92
2023-01-21T22:36:27.125Z,1.17
2023-01-21T22:41:28.379Z,1.24
2023-01-21T22:46:30.244Z,1.15
2023-01-21T22:51:31.994Z,1.42
2023-01-21T22:56:50.457Z,1.62
2023-01-21T23:01:53.220Z,1.06
2023-01-21T23:06:55.101Z,1.08
2023-01-21T23:11:56.380Z,0.88
2023-01-21T23:16:57.663Z,0.81
2023-01-21T23:21:59.019Z,0.81
2023-01-21T23:27:00.292Z,0.46
2023-01-21T23:32:01.720Z,0.22
2023-01-21T23:37:03.107Z,0.62
2023-01-21T23:42:04.334Z,0.39
2023-01-21T23:47:05.562Z,0.40
2023-01-21T23:52:12.153Z,0.57
2023-01-21T23:57:13.395Z,0.69
